Time;durP1;ratioP1;P1;durP2;ratioP2;P2;SDS_P1;SDS_P2;PMS_P1;PMS_P2;Temp;Humidity;BMP_temperature;BMP_pressure;BME280_temperature;BME280_humidity;BME280_pressure;Samples;Min_cycle;Max_cycle;Signal;HPM_P1;HPM_P2
2021/05/01 04:01:20;;;;;;;13.88;12.43;;;7.70;99.90;;;;;;5521877;23;20273;-70
2021/05/01 04:03:46;;;;;;;13.00;11.70;;;7.70;99.90;;;;;;4937039;29;20590;-70
2021/05/01 04:06:12;;;;;;;17.92;14.25;;;7.70;99.90;;;;;;4936969;29;20678;-71
2021/05/01 04:08:38;;;;;;;17.23;14.25;;;7.70;99.90;;;;;;4937481;29;20585;-71
2021/05/01 04:11:05;;;;;;;13.90;12.40;;;7.60;99.90;;;;;;4937134;29;20230;-71
2021/05/01 04:13:31;;;;;;;14.52;12.20;;;7.60;99.90;;;;;;4936319;29;20206;-70
2021/05/01 04:15:58;;;;;;;14.88;12.82;;;7.70;99.90;;;;;;4936726;29;20572;-70
2021/05/01 04:18:25;;;;;;;13.85;12.13;;;7.60;99.90;;;;;;4936331;29;20250;-70
2021/05/01 04:20:51;;;;;;;15.32;11.88;;;7.60;99.90;;;;;;4936575;29;20642;-70
2021/05/01 04:23:17;;;;;;;12.85;11.48;;;7.60;99.90;;;;;;4936050;29;20217;-71
2021/05/01 04:25:43;;;;;;;13.18;11.52;;;7.60;99.90;;;;;;4936541;29;20263;-71
2021/05/01 04:28:10;;;;;;;12.43;11.13;;;7.60;99.90;;;;;;4936232;29;20300;-71
2021/05/01 04:30:36;;;;;;;12.32;7.25;;;7.60;99.90;;;;;;4936037;29;20612;-71
2021/05/01 04:33:02;;;;;;;15.95;11.85;;;7.50;99.90;;;;;;4936189;29;20217;-70
2021/05/01 04:35:29;;;;;;;9.40;8.20;;;7.50;99.90;;;;;;4936539;29;20209;-70
2021/05/01 04:37:55;;;;;;;14.13;10.55;;;7.60;99.90;;;;;;4935536;29;20237;-70
2021/05/01 04:40:21;;;;;;;14.52;9.73;;;7.60;99.90;;;;;;4935862;29;20214;-71
2021/05/01 04:42:50;;;;;;;10.07;9.05;;;7.60;99.90;;;;;;4935837;29;20209;-70
2021/05/01 04:45:17;;;;;;;12.43;11.05;;;7.60;99.90;;;;;;4935534;29;20252;-70
2021/05/01 04:47:44;;;;;;;10.05;8.90;;;7.60;99.90;;;;;;4935505;29;20217;-70
2021/05/01 04:50:11;;;;;;;10.07;9.07;;;7.70;99.90;;;;;;4935765;29;20261;-71
2021/05/01 04:52:38;;;;;;;11.00;9.90;;;7.80;99.90;;;;;;4935576;29;20217;-70
2021/05/01 04:55:13;;;;;;;10.25;9.23;;;7.90;99.90;;;;;;4936185;29;20217;-71
2021/05/01 04:57:40;;;;;;;10.82;9.77;;;8.10;99.90;;;;;;4935794;29;20240;-71
2021/05/01 05:00:08;;;;;;;11.00;9.85;;;8.50;99.90;;;;;;4935424;29;20210;-71
2021/05/01 05:02:34;;;;;;;10.57;9.57;;;8.90;99.90;;;;;;4934957;29;20701;-69
2021/05/01 05:05:00;;;;;;;9.55;8.73;;;9.30;99.90;;;;;;4935671;29;20209;-71
2021/05/01 05:07:26;;;;;;;11.75;9.93;;;9.40;99.90;;;;;;4935407;29;20544;-72
2021/05/01 05:09:53;;;;;;;9.63;8.90;;;9.50;99.90;;;;;;4935829;29;20214;-71
2021/05/01 05:12:19;;;;;;;10.27;9.27;;;9.20;99.90;;;;;;4935552;29;20226;-71
2021/05/01 05:14:46;;;;;;;9.57;8.70;;;9.00;99.90;;;;;;4935570;29;20217;-71
2021/05/01 05:17:12;;;;;;;10.55;9.63;;;8.80;99.90;;;;;;4935044;29;20229;-71
2021/05/01 05:19:38;;;;;;;10.57;9.00;;;8.60;99.90;;;;;;4935984;29;20213;-71
2021/05/01 05:22:04;;;;;;;9.45;8.60;;;8.50;99.90;;;;;;4935466;29;20250;-71
2021/05/01 05:24:30;;;;;;;11.68;10.25;;;8.50;99.90;;;;;;4935846;29;20213;-71
2021/05/01 05:26:57;;;;;;;10.50;9.48;;;8.40;99.90;;;;;;4935665;29;20210;-71
2021/05/01 05:29:24;;;;;;;14.05;10.30;;;8.40;99.90;;;;;;4935779;29;20534;-71
2021/05/01 05:31:50;;;;;;;10.40;9.40;;;8.40;99.90;;;;;;4935400;29;20229;-71
2021/05/01 05:34:16;;;;;;;10.73;9.30;;;8.40;99.90;;;;;;4936016;29;20210;-71
2021/05/01 05:36:42;;;;;;;10.80;9.80;;;8.40;99.90;;;;;;4935307;29;20237;-71
2021/05/01 05:39:08;;;;;;;9.18;8.20;;;8.40;99.90;;;;;;4935133;29;20210;-71
2021/05/01 05:41:35;;;;;;;11.00;9.90;;;8.40;99.90;;;;;;4935051;29;20710;-71
2021/05/01 05:44:03;;;;;;;12.00;10.07;;;8.40;99.90;;;;;;4934567;29;20221;-71
2021/05/01 05:46:29;;;;;;;10.85;9.77;;;8.40;99.90;;;;;;4934672;29;20313;-71
2021/05/01 05:48:55;;;;;;;11.20;10.10;;;8.30;99.90;;;;;;4935450;29;20214;-71
2021/05/01 05:51:21;;;;;;;9.80;8.90;;;8.30;99.90;;;;;;4935330;29;20241;-71
2021/05/01 05:53:48;;;;;;;9.85;9.02;;;8.30;99.90;;;;;;4935287;29;20214;-70
2021/05/01 05:56:14;;;;;;;10.60;9.52;;;8.40;99.90;;;;;;4935073;29;20620;-70
2021/05/01 05:58:41;;;;;;;10.98;9.32;;;8.50;99.90;;;;;;4934767;29;20221;-70
2021/05/01 06:01:08;;;;;;;9.40;8.40;;;8.50;99.90;;;;;;4934402;29;20720;-70
2021/05/01 06:03:35;;;;;;;9.98;8.80;;;8.50;99.90;;;;;;4935150;29;20221;-70
2021/05/01 06:06:04;;;;;;;11.70;10.00;;;8.60;99.90;;;;;;4934956;29;20213;-70
2021/05/01 06:08:32;;;;;;;9.60;8.57;;;8.60;99.90;;;;;;4935310;29;20221;-70
2021/05/01 06:11:01;;;;;;;11.43;10.13;;;8.70;99.90;;;;;;4935199;29;20552;-70
2021/05/01 06:13:30;;;;;;;12.43;10.35;;;8.70;99.90;;;;;;4936044;29;20209;-70
2021/05/01 06:15:57;;;;;;;12.77;9.90;;;8.70;99.90;;;;;;4938379;29;20216;-70
2021/05/01 06:18:26;;;;;;;10.98;9.88;;;8.80;99.90;;;;;;4938655;29;20292;-70
2021/05/01 06:20:53;;;;;;;8.20;7.40;;;8.80;99.90;;;;;;4938414;29;20238;-70
2021/05/01 06:23:20;;;;;;;11.35;10.15;;;8.80;99.90;;;;;;4938345;29;20241;-70
2021/05/01 06:25:47;;;;;;;12.60;10.40;;;8.90;99.90;;;;;;4938679;29;20210;-70
2021/05/01 06:28:14;;;;;;;14.57;10.93;;;8.90;99.90;;;;;;4938185;29;20213;-71
2021/05/01 06:30:42;;;;;;;11.25;10.02;;;8.90;99.90;;;;;;4938262;29;20544;-71
2021/05/01 06:33:10;;;;;;;10.40;9.30;;;9.00;99.90;;;;;;4938502;29;20213;-71
2021/05/01 06:35:39;;;;;;;10.95;9.82;;;9.00;99.90;;;;;;4938571;29;20210;-71
2021/05/01 06:38:05;;;;;;;7.72;6.97;;;9.00;99.90;;;;;;4938193;29;20241;-71
2021/05/01 06:40:34;;;;;;;10.73;9.65;;;9.00;99.90;;;;;;4938195;29;20256;-71
2021/05/01 06:43:08;;;;;;;11.15;9.98;;;9.10;99.90;;;;;;4937848;29;20213;-69
2021/05/01 06:45:38;;;;;;;10.88;9.63;;;9.20;99.90;;;;;;4938193;29;20249;-70
2021/05/01 06:48:07;;;;;;;7.72;6.93;;;9.10;99.90;;;;;;4937996;29;20217;-70
2021/05/01 06:50:34;;;;;;;10.85;8.90;;;9.10;99.90;;;;;;4937929;29;20229;-69
2021/05/01 06:53:02;;;;;;;8.88;8.07;;;9.20;99.90;;;;;;4938157;29;20240;-70
2021/05/01 06:55:30;;;;;;;10.88;8.73;;;9.20;99.90;;;;;;4937775;29;20273;-71
2021/05/01 06:57:58;;;;;;;10.10;9.05;;;9.20;99.90;;;;;;4937547;29;20230;-71
2021/05/01 07:00:26;;;;;;;49.65;29.42;;;9.40;99.90;;;;;;4937535;29;20666;-71
2021/05/01 07:02:55;;;;;;;21.02;15.98;;;9.50;99.90;;;;;;4937944;29;20202;-70
2021/05/01 07:05:23;;;;;;;9.02;8.25;;;9.60;99.90;;;;;;4937756;29;20217;-70
2021/05/01 07:07:49;;;;;;;14.02;10.65;;;9.70;99.90;;;;;;4937317;29;20552;-71
2021/05/01 07:10:19;;;;;;;10.05;8.73;;;9.80;99.90;;;;;;4937610;29;20217;-71
2021/05/01 07:12:46;;;;;;;10.05;9.00;;;9.90;99.90;;;;;;4937155;29;20213;-71
2021/05/01 07:15:16;;;;;;;8.90;8.07;;;9.70;99.90;;;;;;4937114;29;20698;-71
2021/05/01 07:17:42;;;;;;;10.63;8.38;;;9.70;99.90;;;;;;4937237;29;20605;-71
2021/05/01 07:20:11;;;;;;;11.40;10.20;;;9.80;99.90;;;;;;4937183;29;20210;-71
2021/05/01 07:22:37;;;;;;;8.70;7.90;;;10.00;99.90;;;;;;4937125;29;20667;-71
2021/05/01 07:25:06;;;;;;;10.10;9.20;;;10.20;99.90;;;;;;4935797;29;20265;-69
2021/05/01 07:27:36;;;;;;;12.13;8.85;;;10.30;99.90;;;;;;4937563;29;20626;-69
2021/05/01 07:30:05;;;;;;;8.30;7.70;;;10.40;99.90;;;;;;4937241;29;20544;-69
2021/05/01 07:32:34;;;;;;;19.80;17.90;;;10.40;99.90;;;;;;4937890;29;20210;-69
2021/05/01 07:35:04;;;;;;;9.68;8.43;;;10.60;99.90;;;;;;4936908;29;20213;-69
2021/05/01 07:37:31;;;;;;;7.28;6.55;;;10.80;99.90;;;;;;4937115;29;20229;-71
2021/05/01 07:40:00;;;;;;;8.23;7.43;;;10.70;99.90;;;;;;4937918;29;20224;-69
2021/05/01 07:42:29;;;;;;;9.93;9.05;;;10.70;99.90;;;;;;4936656;29;20361;-71
2021/05/01 07:44:59;;;;;;;7.82;7.20;;;10.60;99.90;;;;;;4936815;29;20221;-71
2021/05/01 07:47:29;;;;;;;8.65;7.80;;;10.80;99.90;;;;;;4936599;29;20187;-70
2021/05/01 07:49:56;;;;;;;9.48;8.68;;;10.80;99.90;;;;;;4937302;29;20354;-69
2021/05/01 07:52:23;;;;;;;9.55;8.63;;;10.70;99.90;;;;;;4936879;29;20591;-70
2021/05/01 07:54:49;;;;;;;10.27;9.40;;;10.80;99.90;;;;;;4937058;29;20217;-69
2021/05/01 07:57:15;;;;;;;9.82;8.50;;;10.80;99.90;;;;;;4936906;29;20237;-70
2021/05/01 07:59:41;;;;;;;10.02;9.02;;;10.90;99.90;;;;;;4936547;29;20655;-70
2021/05/01 08:02:08;;;;;;;11.48;10.38;;;11.20;99.90;;;;;;4936270;29;20241;-70
2021/05/01 08:04:34;;;;;;;12.52;9.95;;;11.50;99.90;;;;;;4936657;29;20220;-70
2021/05/01 08:07:01;;;;;;;11.90;9.82;;;11.70;99.90;;;;;;4936676;29;20548;-70
2021/05/01 08:09:27;;;;;;;8.95;8.23;;;11.80;99.90;;;;;;4936681;29;20235;-70
2021/05/01 08:11:53;;;;;;;8.98;8.25;;;11.60;99.90;;;;;;4936707;29;20590;-71
2021/05/01 08:14:19;;;;;;;8.68;8.07;;;11.70;99.90;;;;;;4936286;29;20557;-70
2021/05/01 08:16:45;;;;;;;9.75;8.85;;;11.90;99.90;;;;;;4936641;29;20237;-70
2021/05/01 08:19:12;;;;;;;9.70;8.98;;;12.00;99.90;;;;;;4937103;29;20206;-70
2021/05/01 08:21:38;;;;;;;9.70;8.90;;;11.90;99.90;;;;;;4937051;29;20241;-70
2021/05/01 08:24:05;;;;;;;9.07;8.27;;;11.90;99.90;;;;;;4952546;29;20222;-70
2021/05/01 08:26:32;;;;;;;9.40;8.52;;;11.80;99.90;;;;;;4955162;29;20205;-70
2021/05/01 08:28:59;;;;;;;9.55;8.80;;;11.80;99.90;;;;;;4944479;29;20213;-70
2021/05/01 08:31:25;;;;;;;8.90;8.20;;;11.80;99.90;;;;;;4935968;29;20237;-70
2021/05/01 08:33:52;;;;;;;9.80;8.70;;;12.00;99.90;;;;;;4936075;29;20221;-70
2021/05/01 08:36:19;;;;;;;8.67;8.00;;;12.50;99.90;;;;;;4935864;29;20537;-70
2021/05/01 08:38:45;;;;;;;10.40;8.57;;;12.70;99.90;;;;;;4936203;29;20473;-70
2021/05/01 08:41:12;;;;;;;10.17;8.57;;;12.80;99.90;;;;;;4936055;29;20486;-70
2021/05/01 08:43:38;;;;;;;8.30;7.50;;;12.80;99.90;;;;;;4935696;29;20472;-70
2021/05/01 08:46:12;;;;;;;9.27;8.48;;;12.60;99.90;;;;;;4935392;29;20462;-70
2021/05/01 08:48:39;;;;;;;9.53;8.80;;;12.60;99.90;;;;;;4936193;29;20215;-70
2021/05/01 08:51:05;;;;;;;8.67;7.97;;;12.80;99.90;;;;;;4936058;29;20485;-70
2021/05/01 08:53:33;;;;;;;9.43;8.75;;;12.70;99.90;;;;;;4935649;29;20781;-70
2021/05/01 08:56:00;;;;;;;10.32;9.43;;;12.50;99.90;;;;;;4935739;29;20218;-71
2021/05/01 08:58:26;;;;;;;10.07;9.07;;;12.50;99.90;;;;;;4935421;29;20543;-70
2021/05/01 09:00:52;;;;;;;9.97;9.27;;;12.50;99.90;;;;;;4935473;29;20497;-71
2021/05/01 09:03:21;;;;;;;10.10;9.20;;;12.50;99.90;;;;;;4935448;29;20474;-71
2021/05/01 09:05:48;;;;;;;10.50;9.50;;;12.60;99.90;;;;;;4935509;29;20538;-71
2021/05/01 09:08:16;;;;;;;9.73;8.83;;;12.60;99.90;;;;;;4935562;29;20473;-71
2021/05/01 09:10:46;;;;;;;9.10;8.40;;;12.70;99.90;;;;;;4936540;29;20817;-73
2021/05/01 09:13:15;;;;;;;10.10;9.30;;;12.80;99.90;;;;;;4935555;29;20470;-72
2021/05/01 09:15:55;;;;;;;9.20;8.40;;;12.70;99.90;;;;;;4935453;29;20468;-73
2021/05/01 09:18:22;;;;;;;8.70;8.10;;;12.70;99.90;;;;;;4936309;29;20493;-73
2021/05/01 09:20:48;;;;;;;9.17;8.37;;;12.60;99.90;;;;;;4936218;29;20496;-73
2021/05/01 09:23:14;;;;;;;8.50;7.70;;;12.80;99.90;;;;;;4935345;29;20824;-73
2021/05/01 09:25:54;;;;;;;9.57;8.90;;;13.00;99.90;;;;;;4935695;29;20493;-73
2021/05/01 09:28:22;;;;;;;8.47;7.87;;;13.30;99.90;;;;;;4934901;29;20969;-73
2021/05/01 09:31:03;;;;;;;8.70;8.10;;;13.40;99.90;;;;;;4934867;29;20489;-73
2021/05/01 09:33:31;;;;;;;9.40;8.53;;;13.30;99.90;;;;;;4935119;29;20788;-73
2021/05/01 09:36:01;;;;;;;9.07;8.27;;;13.20;99.90;;;;;;4935579;29;20528;-73
2021/05/01 09:38:38;;;;;;;9.10;7.90;;;13.20;99.90;;;;;;4935148;29;20521;-73
2021/05/01 09:41:19;;;;;;;7.80;7.10;;;13.20;99.90;;;;;;4935109;29;20515;-73
2021/05/01 09:43:58;;;;;;;8.67;7.90;;;13.10;99.90;;;;;;4934683;29;20811;-73
2021/05/01 09:46:24;;;;;;;7.57;7.07;;;13.30;99.90;;;;;;4934971;29;20477;-73
2021/05/01 09:49:03;;;;;;;8.80;8.00;;;13.40;99.90;;;;;;4934479;29;20961;-73
2021/05/01 09:51:31;;;;;;;8.70;8.00;;;13.20;99.90;;;;;;4934775;29;20489;-69
2021/05/01 09:53:59;;;;;;;8.70;8.00;;;13.40;99.90;;;;;;4934806;29;20470;-69
2021/05/01 09:56:28;;;;;;;8.87;8.13;;;13.70;99.90;;;;;;4936323;29;20474;-70
2021/05/01 09:58:55;;;;;;;7.77;7.27;;;14.00;99.90;;;;;;4935070;29;20474;-70
2021/05/01 10:01:21;;;;;;;8.23;7.60;;;14.00;99.90;;;;;;4935467;29;20994;-70
2021/05/01 10:03:47;;;;;;;8.70;8.07;;;13.90;99.90;;;;;;4935331;29;20472;-71
2021/05/01 10:06:16;;;;;;;9.03;8.23;;;13.80;99.90;;;;;;4935414;29;20473;-70
2021/05/01 10:08:42;;;;;;;8.53;7.83;;;13.70;99.90;;;;;;4935150;29;20515;-69
2021/05/01 10:11:11;;;;;;;9.20;8.60;;;13.70;99.90;;;;;;4937279;29;20489;-70
2021/05/01 10:13:48;;;;;;;8.40;7.80;;;13.70;99.90;;;;;;4938481;29;20469;-71
2021/05/01 10:16:16;;;;;;;8.93;8.33;;;13.80;99.90;;;;;;4940179;29;20466;-72
2021/05/01 10:19:03;;;;;;;9.60;8.70;;;14.00;99.90;;;;;;4937838;29;20493;-72
2021/05/01 10:21:29;;;;;;;8.37;7.77;;;14.00;99.90;;;;;;4940462;29;20485;-72
2021/05/01 10:23:56;;;;;;;8.33;7.83;;;14.10;99.90;;;;;;4941052;29;20643;-72
2021/05/01 10:26:22;;;;;;;8.20;7.60;;;14.30;99.90;;;;;;4941383;29;20485;-72
2021/05/01 10:28:52;;;;;;;8.93;8.23;;;14.30;99.90;;;;;;4941220;29;20516;-72
2021/05/01 10:31:21;;;;;;;7.60;7.00;;;14.20;99.90;;;;;;4937329;29;20481;-72
2021/05/01 10:33:50;;;;;;;8.70;8.00;;;14.30;99.90;;;;;;4936994;29;20962;-72
2021/05/01 10:36:21;;;;;;;9.00;8.30;;;14.30;99.90;;;;;;4934881;29;20523;-71
2021/05/01 10:38:58;;;;;;;8.43;7.77;;;14.30;99.90;;;;;;4934735;29;20680;-71
2021/05/01 10:41:25;;;;;;;8.73;8.13;;;14.40;99.90;;;;;;4934531;29;20500;-71
2021/05/01 10:43:54;;;;;;;7.87;7.37;;;14.60;99.90;;;;;;4933848;29;20958;-72
2021/05/01 10:46:24;;;;;;;8.37;7.77;;;14.60;99.90;;;;;;4934377;29;20470;-71
2021/05/01 10:48:53;;;;;;;9.70;8.97;;;14.70;99.90;;;;;;4934608;29;20477;-71
2021/05/01 10:51:21;;;;;;;8.20;7.63;;;14.70;99.90;;;;;;4934859;29;20486;-72
2021/05/01 10:53:48;;;;;;;8.63;8.03;;;14.70;99.90;;;;;;4933931;29;20470;-72
2021/05/01 10:56:25;;;;;;;7.70;7.20;;;14.60;99.90;;;;;;4935054;29;20469;-72
2021/05/01 10:58:54;;;;;;;8.70;8.10;;;14.40;99.90;;;;;;4935871;29;20859;-72
2021/05/01 11:01:33;;;;;;;8.30;7.70;;;14.20;99.90;;;;;;4937584;29;21012;-72
2021/05/01 11:04:01;;;;;;;7.80;7.30;;;14.30;99.90;;;;;;4937963;29;20465;-72
2021/05/01 11:06:28;;;;;;;8.70;8.00;;;14.20;99.90;;;;;;4937668;29;20478;-72
2021/05/01 11:09:01;;;;;;;8.43;7.83;;;14.20;99.90;;;;;;4937407;29;20843;-72
2021/05/01 11:11:39;;;;;;;8.77;8.13;;;14.30;99.90;;;;;;4937064;29;20597;-72
2021/05/01 11:14:14;;;;;;;8.53;7.93;;;14.30;99.90;;;;;;4936862;29;20480;-72
2021/05/01 11:16:44;;;;;;;7.47;7.00;;;14.20;99.90;;;;;;4936987;29;20503;-72
2021/05/01 11:19:13;;;;;;;8.57;7.87;;;14.30;99.90;;;;;;4937360;29;20469;-72
2021/05/01 11:21:42;;;;;;;8.97;8.37;;;14.20;99.90;;;;;;4937226;29;20504;-72
2021/05/01 11:24:14;;;;;;;8.00;7.27;;;14.20;99.90;;;;;;4936935;29;20888;-72
2021/05/01 11:26:45;;;;;;;8.57;7.87;;;14.40;99.90;;;;;;4937539;29;20474;-72
2021/05/01 11:29:13;;;;;;;8.23;7.43;;;14.70;99.90;;;;;;4936735;29;20771;-73
2021/05/01 11:31:42;;;;;;;7.13;6.73;;;15.10;99.90;;;;;;4937218;29;20494;-73
2021/05/01 11:34:11;;;;;;;8.10;7.30;;;15.20;99.90;;;;;;4937523;29;20815;-72
2021/05/01 11:36:44;;;;;;;8.97;7.67;;;15.30;99.90;;;;;;4936976;29;20552;-72
2021/05/01 11:39:11;;;;;;;7.33;6.90;;;15.20;99.90;;;;;;4937042;29;20458;-71
2021/05/01 11:41:42;;;;;;;8.53;7.87;;;15.10;99.90;;;;;;4936717;29;20521;-71
2021/05/01 11:44:10;;;;;;;7.73;7.13;;;14.90;99.90;;;;;;4936031;29;20516;-71
2021/05/01 11:46:43;;;;;;;7.63;7.13;;;14.80;99.90;;;;;;4937387;29;20461;-71
2021/05/01 11:49:10;;;;;;;7.73;7.10;;;14.80;99.90;;;;;;4936571;29;20989;-71
2021/05/01 11:51:58;;;;;;;8.00;7.50;;;14.70;99.90;;;;;;4936644;29;20481;-71
2021/05/01 11:54:45;;;;;;;7.87;7.33;;;14.60;99.90;;;;;;4936779;29;20466;-71
2021/05/01 11:57:20;;;;;;;8.70;8.10;;;14.60;99.90;;;;;;4936707;29;20490;-71
2021/05/01 11:59:47;;;;;;;7.20;6.80;;;14.60;99.90;;;;;;4936266;29;20487;-71
2021/05/01 12:02:16;;;;;;;8.17;7.57;;;14.60;99.90;;;;;;4935814;29;20497;-71
2021/05/01 12:04:49;;;;;;;8.97;8.00;;;14.60;99.90;;;;;;4936583;29;20468;-71
2021/05/01 12:07:22;;;;;;;8.20;7.70;;;14.60;99.90;;;;;;4936250;29;20484;-71
2021/05/01 12:09:49;;;;;;;10.27;9.43;;;14.50;99.90;;;;;;4936416;29;20504;-71
2021/05/01 12:12:18;;;;;;;8.23;7.53;;;14.60;99.90;;;;;;4935501;29;20553;-72
2021/05/01 12:14:47;;;;;;;8.53;7.80;;;14.70;99.90;;;;;;4935986;29;20469;-71
2021/05/01 12:17:16;;;;;;;8.40;7.70;;;14.70;99.90;;;;;;4935921;29;20517;-72
2021/05/01 12:19:44;;;;;;;8.10;7.50;;;14.60;99.90;;;;;;4936384;29;20549;-71
2021/05/01 12:22:26;;;;;;;8.60;7.90;;;14.60;99.90;;;;;;4936051;29;20934;-71
2021/05/01 12:24:53;;;;;;;8.47;7.80;;;14.40;99.90;;;;;;4936858;29;20823;-72
2021/05/01 12:27:48;;;;;;;8.60;7.90;;;14.40;99.90;;;;;;4936463;29;20461;-71
2021/05/01 12:30:59;;;;;;;8.40;7.80;;;14.30;99.90;;;;;;4935680;29;20521;-71
2021/05/01 12:33:52;;;;;;;8.47;7.87;;;14.20;99.90;;;;;;4935817;29;20472;-71
2021/05/01 12:36:28;;;;;;;9.57;8.87;;;14.10;99.90;;;;;;4936013;29;20492;-71
2021/05/01 12:38:57;;;;;;;11.30;10.20;;;13.90;99.90;;;;;;4935667;29;20485;-72
2021/05/01 12:41:25;;;;;;;11.23;10.20;;;13.80;99.90;;;;;;4936230;29;20592;-71
2021/05/01 12:43:53;;;;;;;9.73;8.80;;;13.60;99.90;;;;;;4935082;29;20210;-71
2021/05/01 12:46:46;;;;;;;10.55;9.65;;;13.40;99.90;;;;;;4934931;29;20218;-71
2021/05/01 12:49:21;;;;;;;9.77;8.93;;;13.20;99.90;;;;;;4929272;29;20209;-71
2021/05/01 12:52:10;;;;;;;11.18;10.27;;;12.90;99.90;;;;;;4935043;29;20583;-72
2021/05/01 12:54:38;;;;;;;10.52;9.63;;;12.70;99.90;;;;;;4934848;29;20213;-71
2021/05/01 12:57:07;;;;;;;13.40;12.02;;;12.50;99.90;;;;;;4934615;29;20218;-71
2021/05/01 12:59:36;;;;;;;12.52;11.55;;;12.40;99.90;;;;;;4935990;29;20601;-72
2021/05/01 13:02:29;;;;;;;12.02;11.00;;;12.10;99.90;;;;;;4936426;29;20336;-71
2021/05/01 13:05:08;;;;;;;13.18;11.43;;;11.90;99.90;;;;;;4934926;29;20209;-71
2021/05/01 13:07:37;;;;;;;11.48;10.38;;;11.80;99.90;;;;;;4934713;29;20384;-71
2021/05/01 13:10:05;;;;;;;13.98;12.68;;;11.70;99.90;;;;;;4934593;29;20291;-71
2021/05/01 13:12:31;;;;;;;13.80;12.50;;;11.60;99.90;;;;;;4934171;29;20210;-71
2021/05/01 13:14:59;;;;;;;13.52;12.13;;;11.50;99.90;;;;;;4934327;29;20225;-71
2021/05/01 13:17:37;;;;;;;11.02;10.13;;;11.40;99.90;;;;;;4933719;29;20240;-71
2021/05/01 13:20:17;;;;;;;13.00;11.80;;;11.20;99.90;;;;;;4934541;29;20308;-71
2021/05/01 13:22:49;;;;;;;13.70;12.40;;;11.00;99.90;;;;;;4934003;29;20218;-72
2021/05/01 13:25:18;;;;;;;13.23;11.93;;;11.10;99.90;;;;;;4934302;29;20651;-72
2021/05/01 13:27:49;;;;;;;15.45;13.85;;;11.20;99.90;;;;;;4934342;29;20220;-72
2021/05/01 13:30:17;;;;;;;13.80;12.25;;;11.20;99.90;;;;;;4934219;29;20257;-71
2021/05/01 13:32:44;;;;;;;15.15;12.55;;;11.30;99.90;;;;;;4933553;29;20693;-71
2021/05/01 13:35:11;;;;;;;15.32;12.48;;;11.30;99.90;;;;;;4934698;29;20292;-71
2021/05/01 13:37:38;;;;;;;13.93;12.50;;;11.30;99.90;;;;;;4934761;29;20237;-71
2021/05/01 13:40:06;;;;;;;14.13;12.82;;;11.30;99.90;;;;;;4934933;29;20359;-71
2021/05/01 13:42:39;;;;;;;12.95;11.68;;;11.30;99.90;;;;;;4934627;29;20352;-71
2021/05/01 13:45:07;;;;;;;15.02;13.63;;;11.30;99.90;;;;;;4934369;29;20686;-71
2021/05/01 13:47:34;;;;;;;14.35;12.93;;;11.40;99.90;;;;;;4934327;29;20768;-71
2021/05/01 13:50:07;;;;;;;16.15;14.48;;;11.40;99.90;;;;;;4934649;29;20693;-71
2021/05/01 13:52:36;;;;;;;14.95;13.50;;;11.40;99.90;;;;;;4934442;29;20347;-72
2021/05/01 13:55:25;;;;;;;15.90;14.40;;;11.50;99.90;;;;;;4934776;29;20305;-72
2021/05/01 13:57:53;;;;;;;15.40;13.90;;;11.60;99.90;;;;;;4934838;29;20237;-72
2021/05/01 14:00:22;;;;;;;16.25;14.75;;;11.70;99.90;;;;;;4934062;29;20213;-72
2021/05/01 14:02:50;;;;;;;12.88;11.68;;;11.80;99.90;;;;;;4934369;29;20225;-72
2021/05/01 14:05:18;;;;;;;12.07;10.98;;;11.90;99.90;;;;;;4934360;29;20214;-72
2021/05/01 14:07:44;;;;;;;8.55;7.85;;;12.10;99.90;;;;;;4934275;29;20220;-73
2021/05/01 14:10:12;;;;;;;8.00;7.30;;;12.10;99.90;;;;;;4934289;29;20674;-72
2021/05/01 14:12:40;;;;;;;8.73;7.93;;;12.20;99.90;;;;;;4934392;29;20209;-72
2021/05/01 14:15:09;;;;;;;7.75;7.15;;;12.30;99.90;;;;;;4934033;29;20229;-72
2021/05/01 14:17:35;;;;;;;7.18;6.60;;;12.40;99.90;;;;;;4934129;29;20249;-72
2021/05/01 14:20:03;;;;;;;6.78;6.28;;;12.50;99.90;;;;;;4934727;29;20213;-73
2021/05/01 14:22:30;;;;;;;7.18;6.65;;;12.70;99.90;;;;;;4934097;29;20233;-73
2021/05/01 14:25:01;;;;;;;5.30;5.00;;;12.80;99.90;;;;;;4934277;29;20209;-73
2021/05/01 14:27:47;;;;;;;6.27;5.87;;;12.90;99.90;;;;;;4934278;29;20466;-72
2021/05/01 14:30:18;;;;;;;5.43;5.13;;;12.90;99.90;;;;;;4933917;29;20480;-72
2021/05/01 14:32:44;;;;;;;5.80;5.50;;;12.90;99.90;;;;;;4933740;29;20569;-72
2021/05/01 14:35:13;;;;;;;5.20;4.93;;;13.10;99.90;;;;;;4937097;29;20469;-72
2021/05/01 14:37:42;;;;;;;6.10;5.70;;;13.30;99.90;;;;;;4937683;29;20820;-72
2021/05/01 14:40:10;;;;;;;5.90;5.50;;;13.40;99.90;;;;;;4938155;29;20594;-72
2021/05/01 14:42:49;;;;;;;7.43;6.83;;;13.50;99.90;;;;;;4937776;29;20481;-72
2021/05/01 14:45:19;;;;;;;8.10;7.50;;;13.70;99.90;;;;;;4937345;29;20559;-71
2021/05/01 14:47:45;;;;;;;9.43;8.63;;;13.70;99.90;;;;;;4937650;29;20461;-69
2021/05/01 14:50:27;;;;;;;10.33;9.53;;;13.60;99.90;;;;;;4937424;29;20466;-69
2021/05/01 14:52:54;;;;;;;10.97;10.17;;;13.60;99.90;;;;;;4937592;29;20817;-69
2021/05/01 14:55:26;;;;;;;13.50;12.30;;;13.50;99.90;;;;;;4937472;29;20571;-71
2021/05/01 14:57:54;;;;;;;8.53;7.80;;;13.40;99.90;;;;;;4937524;29;20493;-69
2021/05/01 15:00:22;;;;;;;8.37;7.70;;;13.20;99.90;;;;;;4937314;29;20468;-68
2021/05/01 15:02:50;;;;;;;9.60;8.80;;;13.00;99.90;;;;;;4936897;29;20536;-71
2021/05/01 15:05:18;;;;;;;10.38;9.38;;;13.00;99.90;;;;;;4937730;29;20465;-69
2021/05/01 15:07:46;;;;;;;9.85;8.98;;;13.00;99.90;;;;;;4937613;29;20236;-71
2021/05/01 15:10:15;;;;;;;11.25;10.35;;;13.00;99.90;;;;;;4937379;29;20213;-72
2021/05/01 15:13:11;;;;;;;9.88;9.07;;;13.20;99.90;;;;;;4936810;29;20244;-70
2021/05/01 15:15:39;;;;;;;13.40;12.00;;;13.10;99.90;;;;;;4904185;29;20591;-68
2021/05/01 15:18:06;;;;;;;9.98;9.18;;;13.30;99.90;;;;;;4937640;29;20245;-68
2021/05/01 15:20:43;;;;;;;8.30;7.60;;;13.50;99.90;;;;;;4937800;29;20245;-69
2021/05/01 15:23:15;;;;;;;8.13;7.57;;;13.50;99.90;;;;;;4937320;29;20562;-69
2021/05/01 15:25:44;;;;;;;8.63;7.90;;;13.60;99.90;;;;;;4944631;29;20469;-69
2021/05/01 15:28:12;;;;;;;6.70;6.10;;;13.60;99.90;;;;;;4946047;29;20634;-69
2021/05/01 15:30:40;;;;;;;8.15;7.47;;;13.60;99.90;;;;;;4946335;29;20229;-69
2021/05/01 15:33:08;;;;;;;7.70;7.10;;;13.50;99.90;;;;;;4939857;29;20670;-69
2021/05/01 15:35:35;;;;;;;8.20;7.60;;;13.50;99.90;;;;;;4937512;29;20545;-69
2021/05/01 15:38:03;;;;;;;7.93;7.33;;;13.60;99.90;;;;;;4936982;29;20236;-69
2021/05/01 15:40:29;;;;;;;9.93;8.93;;;13.60;99.90;;;;;;4943304;29;20489;-69
2021/05/01 15:42:56;;;;;;;9.45;8.65;;;13.60;99.90;;;;;;4948808;29;20250;-69
2021/05/01 15:45:24;;;;;;;9.95;9.05;;;13.50;99.90;;;;;;4947375;29;20213;-69
2021/05/01 15:47:50;;;;;;;9.52;8.65;;;13.50;99.90;;;;;;4950620;29;20249;-69
2021/05/01 15:50:17;;;;;;;8.88;8.20;;;13.30;99.90;;;;;;4952100;29;20217;-68
2021/05/01 15:52:44;;;;;;;8.70;7.90;;;13.20;99.90;;;;;;4950597;29;20209;-69
2021/05/01 15:55:12;;;;;;;8.73;8.02;;;13.30;99.90;;;;;;4948317;29;20221;-69
2021/05/01 15:57:40;;;;;;;8.60;8.00;;;13.30;99.90;;;;;;4937777;29;20535;-69
2021/05/01 16:00:09;;;;;;;8.40;7.80;;;13.20;99.90;;;;;;4936980;29;20210;-69
2021/05/01 16:02:36;;;;;;;7.93;7.32;;;13.30;99.90;;;;;;4936298;29;20218;-69
2021/05/01 16:05:03;;;;;;;10.05;9.20;;;13.30;99.90;;;;;;4937557;29;20265;-68
2021/05/01 16:07:29;;;;;;;8.98;8.38;;;13.20;99.90;;;;;;4936131;29;20235;-69
2021/05/01 16:09:56;;;;;;;8.80;8.10;;;13.20;99.90;;;;;;4936376;29;20213;-68
2021/05/01 16:12:22;;;;;;;8.85;8.15;;;13.20;99.90;;;;;;4936236;29;20249;-69
2021/05/01 16:14:48;;;;;;;8.52;7.93;;;13.20;99.90;;;;;;4935976;29;20352;-69
2021/05/01 16:17:14;;;;;;;9.18;8.48;;;13.10;99.90;;;;;;4935530;29;20217;-69
2021/05/01 16:19:41;;;;;;;8.15;7.55;;;13.10;99.90;;;;;;4936423;29;20588;-70
2021/05/01 16:22:09;;;;;;;9.23;8.52;;;13.10;99.90;;;;;;4936002;29;20225;-70
2021/05/01 16:24:35;;;;;;;8.70;8.10;;;13.00;99.90;;;;;;4936356;29;20216;-70
2021/05/01 16:27:02;;;;;;;11.48;10.40;;;13.00;99.90;;;;;;4937667;29;20466;-70
2021/05/01 16:29:28;;;;;;;8.95;8.25;;;13.00;99.90;;;;;;4937053;29;20257;-70
2021/05/01 16:31:54;;;;;;;7.95;7.38;;;12.90;99.90;;;;;;4937041;29;20253;-70
2021/05/01 16:34:21;;;;;;;8.75;8.05;;;12.80;99.90;;;;;;4935855;29;20546;-70
2021/05/01 16:36:48;;;;;;;10.73;9.82;;;12.70;99.90;;;;;;4936087;29;20217;-70
2021/05/01 16:39:14;;;;;;;8.82;8.13;;;12.60;99.90;;;;;;4935932;29;20230;-70
2021/05/01 16:41:40;;;;;;;7.57;7.07;;;12.50;99.90;;;;;;4935569;29;20230;-70
2021/05/01 16:44:07;;;;;;;8.02;7.40;;;12.50;99.90;;;;;;4934963;29;20214;-69
2021/05/01 16:46:33;;;;;;;8.63;7.93;;;12.50;99.90;;;;;;4935414;29;20217;-69
2021/05/01 16:49:00;;;;;;;9.32;8.52;;;12.50;99.90;;;;;;4935637;29;20202;-69
2021/05/01 16:51:28;;;;;;;8.73;8.02;;;12.40;99.90;;;;;;4935612;29;20241;-70
2021/05/01 16:53:56;;;;;;;6.80;6.40;;;12.40;99.90;;;;;;4935558;29;20209;-70